Terminal Aerodrome Forecast
Issued by NWS

Home | Current Version | Previous Version | Text Only | Print | Product List | Glossary Off
Versions: 1 2 3 4 5 6 7 8 9 10 11 12 13 14 15 16 17 18 19 20 21 22 23 24 25 26 27 28 29

358
FTUS43 KBIS 121539 AAA
TAFDIK
TAF AMD
KDIK 121539Z 1216/1312 08008KT P6SM BKN015 OVC035
      TEMPO 1217/1219 BKN040
     FM121900 08007KT P6SM BKN040
     FM122300 11009KT P6SM BKN070
     FM130400 13012KT P6SM OVC015
     FM130700 15012KT 5SM -SN BR OVC010=

USA.gov is the U.S. government's official web portal to all federal, state and local government web resources and services.